American United — WDF9634 — position and weather

sailwx.info

Track history (hours):
 
Tides and Currents Weather Stations Pressure Air Temp Water Temp Dewpoint Dewpoint Depression Visibility Wind Speed Wind Dir Waves Ship Positions

American United

Owner: Massport Fire Rescue, East Boston, MA. More information available from US FCC via Universal Licensing System and Coast Guard Vessel Documentation Center.

Last reported at 2018-Feb-19 00:56 UTC. Time now 2018-Feb-19 01:58 UTC.
Position N 42°22' W 071°02'.

Type: SAR. MMSI: 367507210.

Date/timePositionNaut miles runAvg speedWind from/ knotsBaromVisibWave heightAir tempDewpointWater temp
2018-Feb-19 00:56N 42°22' W 071°02'0 0.0
2018-Feb-18 20:40N 42°22' W 071°02'0 0.0
2018-Feb-18 20:23N 42°22' W 071°02'0 0.0
2018-Feb-18 19:55N 42°22' W 071°02'0 0.0
2018-Feb-18 19:28N 42°22' W 071°02'0 0.0
2018-Feb-18 18:57N 42°22' W 071°02'0 0.0
2018-Feb-18 18:28N 42°22' W 071°02'0 0.0
2018-Feb-18 17:48N 42°22' W 071°02'0 0.0
2018-Feb-18 17:24N 42°22' W 071°02'0 0.0
2018-Feb-18 16:52N 42°22' W 071°02'0 0.0
2018-Feb-18 15:08N 42°22' W 071°02'0 0.0
2018-Feb-18 14:59N 42°22' W 071°02'0 0.0
2018-Feb-17 15:37N 42°22' W 071°02'0 0.0
2018-Feb-17 15:30N 42°22' W 071°02'0 0.0
2018-Feb-17 14:56N 42°22' W 071°02'0 0.3
2018-Feb-17 14:22N 42°22' W 071°02'0 0.1
2018-Feb-17 11:59N 42°22' W 071°02'0 0.0
2018-Feb-17 09:19N 42°22' W 071°02'0 0.0
2018-Feb-17 08:59N 42°22' W 071°02'0 0.0
2018-Feb-17 08:11N 42°22' W 071°02'0 0.0
2018-Feb-17 07:58N 42°22' W 071°02'0 0.0
2018-Feb-17 07:28N 42°22' W 071°02'0 0.0
2018-Feb-17 06:59N 42°22' W 071°02'0 0.0
2018-Feb-17 05:46N 42°22' W 071°02'0 0.0
2018-Feb-17 05:29N 42°22' W 071°02'0 0.0
2018-Feb-17 04:58N 42°22' W 071°02'0 0.0
2018-Feb-17 04:29N 42°22' W 071°02'0 0.0
2018-Feb-17 03:59N 42°22' W 071°02'0 0.0
2018-Feb-17 03:29N 42°22' W 071°02'0 0.0
2018-Feb-17 02:57N 42°22' W 071°02'0 0.0
2018-Feb-17 02:24N 42°22' W 071°02'0 0.0
2018-Feb-17 01:53N 42°22' W 071°02'0 0.0
2018-Feb-16 17:41N 42°22' W 071°02'2 3.4
2018-Feb-16 17:12N 42°23' W 070°60'3 6.5
2018-Feb-16 16:47N 42°20' W 070°60'2 2.1
2018-Feb-16 15:42N 42°22' W 071°02'0 0.0
2018-Feb-16 15:30N 42°22' W 071°02'0 0.0
2018-Feb-15 00:51N 42°22' W 071°02'0 0.1
2018-Feb-15 00:30N 42°22' W 071°02'0 0.0
2018-Feb-13 22:00N 42°22' W 071°02'0 0.0
2018-Feb-13 21:22N 42°22' W 071°02'0 0.0
2018-Feb-13 16:58N 42°22' W 071°02'1 3.2
2018-Feb-13 16:30N 42°23' W 071°03'0 0.9
2018-Feb-13 16:01N 42°22' W 071°03'7 6.6
2018-Feb-13 14:59N 42°21' W 070°54'6 0.9
2018-Feb-13 08:23N 42°22' W 071°02'2 3.5
2018-Feb-13 07:50N 42°23' W 071°00'2 0.2
2018-Feb-12 19:40N 42°21' W 071°02'1 2.5
2018-Feb-12 19:25N 42°21' W 071°01'2 3.7
2018-Feb-12 18:54N 42°22' W 070°59'2 0.1
2018-Feb-11 17:13N 42°22' W 071°02'2 3.1
2018-Feb-11 16:42N 42°22' W 070°59'1 4.1
2018-Feb-11 16:27N 42°23' W 071°00'  
Track history (hours):
 
Tides and Currents Weather Stations Pressure Air Temp Water Temp Dewpoint Dewpoint Depression Visibility Wind Speed Wind Dir Waves Ship Positions

American United

Owner: Massport Fire Rescue, East Boston, MA. More information available from US FCC via Universal Licensing System and Coast Guard Vessel Documentation Center.

Last reported at 2018-Feb-19 00:56 UTC. Time now 2018-Feb-19 01:58 UTC.
Position N 42°22' W 071°02'.

Type: SAR. MMSI: 367507210.

Date/timePositionNaut miles runAvg speedWind from/ knotsBaromVisibWave heightAir tempDewpointWater temp
2018-Feb-19 00:56N 42°22' W 071°02'0 0.0
2018-Feb-18 20:40N 42°22' W 071°02'0 0.0
2018-Feb-18 20:23N 42°22' W 071°02'0 0.0
2018-Feb-18 19:55N 42°22' W 071°02'0 0.0
2018-Feb-18 19:28N 42°22' W 071°02'0 0.0
2018-Feb-18 18:57N 42°22' W 071°02'0 0.0
2018-Feb-18 18:28N 42°22' W 071°02'0 0.0
2018-Feb-18 17:48N 42°22' W 071°02'0 0.0
2018-Feb-18 17:24N 42°22' W 071°02'0 0.0
2018-Feb-18 16:52N 42°22' W 071°02'0 0.0
2018-Feb-18 15:08N 42°22' W 071°02'0 0.0
2018-Feb-18 14:59N 42°22' W 071°02'0 0.0
2018-Feb-17 15:37N 42°22' W 071°02'0 0.0
2018-Feb-17 15:30N 42°22' W 071°02'0 0.0
2018-Feb-17 14:56N 42°22' W 071°02'0 0.3
2018-Feb-17 14:22N 42°22' W 071°02'0 0.1
2018-Feb-17 11:59N 42°22' W 071°02'0 0.0
2018-Feb-17 09:19N 42°22' W 071°02'0 0.0
2018-Feb-17 08:59N 42°22' W 071°02'0 0.0
2018-Feb-17 08:11N 42°22' W 071°02'0 0.0
2018-Feb-17 07:58N 42°22' W 071°02'0 0.0
2018-Feb-17 07:28N 42°22' W 071°02'0 0.0
2018-Feb-17 06:59N 42°22' W 071°02'0 0.0
2018-Feb-17 05:46N 42°22' W 071°02'0 0.0
2018-Feb-17 05:29N 42°22' W 071°02'0 0.0
2018-Feb-17 04:58N 42°22' W 071°02'0 0.0
2018-Feb-17 04:29N 42°22' W 071°02'0 0.0
2018-Feb-17 03:59N 42°22' W 071°02'0 0.0
2018-Feb-17 03:29N 42°22' W 071°02'0 0.0
2018-Feb-17 02:57N 42°22' W 071°02'0 0.0
2018-Feb-17 02:24N 42°22' W 071°02'0 0.0
2018-Feb-17 01:53N 42°22' W 071°02'0 0.0
2018-Feb-16 17:41N 42°22' W 071°02'2 3.4
2018-Feb-16 17:12N 42°23' W 070°60'3 6.5
2018-Feb-16 16:47N 42°20' W 070°60'2 2.1
2018-Feb-16 15:42N 42°22' W 071°02'0 0.0
2018-Feb-16 15:30N 42°22' W 071°02'0 0.0
2018-Feb-15 00:51N 42°22' W 071°02'0 0.1
2018-Feb-15 00:30N 42°22' W 071°02'0 0.0
2018-Feb-13 22:00N 42°22' W 071°02'0 0.0
2018-Feb-13 21:22N 42°22' W 071°02'0 0.0
2018-Feb-13 16:58N 42°22' W 071°02'1 3.2
2018-Feb-13 16:30N 42°23' W 071°03'0 0.9
2018-Feb-13 16:01N 42°22' W 071°03'7 6.6
2018-Feb-13 14:59N 42°21' W 070°54'6 0.9
2018-Feb-13 08:23N 42°22' W 071°02'2 3.5
2018-Feb-13 07:50N 42°23' W 071°00'2 0.2
2018-Feb-12 19:40N 42°21' W 071°02'1 2.5
2018-Feb-12 19:25N 42°21' W 071°01'2 3.7
2018-Feb-12 18:54N 42°22' W 070°59'2 0.1
2018-Feb-11 17:13N 42°22' W 071°02'2 3.1
2018-Feb-11 16:42N 42°22' W 070°59'1 4.1
2018-Feb-11 16:27N 42°23' W 071°00'  

Dump ship's entire track history